sensor_id;sensor_type;location;lat;lon;timestamp;pressure;altitude;pressure_sealevel;temperature;humidity
67015;BME280;1033;52.560;13.374;2022-12-18T00:00:10;102746.59;;;-4.45;96.49
67015;BME280;1033;52.560;13.374;2022-12-18T00:06:35;102755.78;;;-4.77;96.27
67015;BME280;1033;52.560;13.374;2022-12-18T00:09:04;102755.59;;;-4.72;96.05
67015;BME280;1033;52.560;13.374;2022-12-18T00:11:34;102762.13;;;-4.59;96.64
67015;BME280;1033;52.560;13.374;2022-12-18T00:14:03;102766.03;;;-4.69;96.14
67015;BME280;1033;52.560;13.374;2022-12-18T00:16:32;102773.31;;;-4.74;96.38
67015;BME280;1033;52.560;13.374;2022-12-18T00:19:05;102765.84;;;-4.87;95.40
67015;BME280;1033;52.560;13.374;2022-12-18T00:26:11;102757.78;;;-5.07;96.42
67015;BME280;1033;52.560;13.374;2022-12-18T00:28:41;102761.09;;;-5.00;96.91
67015;BME280;1033;52.560;13.374;2022-12-18T00:31:11;102760.22;;;-5.01;97.53
67015;BME280;1033;52.560;13.374;2022-12-18T00:34:06;102760.34;;;-4.80;97.73
67015;BME280;1033;52.560;13.374;2022-12-18T00:36:35;102756.59;;;-4.75;96.94
67015;BME280;1033;52.560;13.374;2022-12-18T00:39:05;102757.22;;;-4.68;96.58
67015;BME280;1033;52.560;13.374;2022-12-18T00:41:36;102757.06;;;-4.87;96.12
67015;BME280;1033;52.560;13.374;2022-12-18T00:44:22;102760.78;;;-4.93;96.42
67015;BME280;1033;52.560;13.374;2022-12-18T00:46:51;102754.47;;;-4.89;97.33
67015;BME280;1033;52.560;13.374;2022-12-18T00:49:21;102748.84;;;-4.79;97.74
67015;BME280;1033;52.560;13.374;2022-12-18T00:51:50;102755.16;;;-4.60;97.17
67015;BME280;1033;52.560;13.374;2022-12-18T00:54:19;102750.91;;;-4.88;96.99
67015;BME280;1033;52.560;13.374;2022-12-18T01:00:53;102752.06;;;-4.71;97.25
67015;BME280;1033;52.560;13.374;2022-12-18T01:03:22;102750.91;;;-4.88;96.61
67015;BME280;1033;52.560;13.374;2022-12-18T01:05:51;102755.22;;;-4.85;96.74
67015;BME280;1033;52.560;13.374;2022-12-18T01:08:20;102753.50;;;-4.86;96.81
67015;BME280;1033;52.560;13.374;2022-12-18T01:10:50;102759.88;;;-4.92;96.81
67015;BME280;1033;52.560;13.374;2022-12-18T01:13:19;102759.44;;;-4.79;96.97
67015;BME280;1033;52.560;13.374;2022-12-18T01:15:52;102762.41;;;-4.65;95.92
67015;BME280;1033;52.560;13.374;2022-12-18T01:18:21;102777.44;;;-4.91;95.70
67015;BME280;1033;52.560;13.374;2022-12-18T01:20:51;102769.69;;;-4.95;95.72
67015;BME280;1033;52.560;13.374;2022-12-18T01:23:20;102779.75;;;-5.05;95.87
67015;BME280;1033;52.560;13.374;2022-12-18T01:25:49;102781.19;;;-5.21;95.95
67015;BME280;1033;52.560;13.374;2022-12-18T01:28:18;102790.84;;;-5.20;96.45
67015;BME280;1033;52.560;13.374;2022-12-18T01:30:47;102779.38;;;-5.19;96.46
67015;BME280;1033;52.560;13.374;2022-12-18T01:33:17;102785.09;;;-5.08;97.01
67015;BME280;1033;52.560;13.374;2022-12-18T01:35:46;102785.75;;;-5.01;96.92
67015;BME280;1033;52.560;13.374;2022-12-18T01:38:15;102789.97;;;-4.96;96.20
67015;BME280;1033;52.560;13.374;2022-12-18T01:40:45;102791.34;;;-5.09;95.93
67015;BME280;1033;52.560;13.374;2022-12-18T01:43:14;102786.09;;;-5.10;95.60
67015;BME280;1033;52.560;13.374;2022-12-18T01:45:43;102791.72;;;-5.19;96.05
67015;BME280;1033;52.560;13.374;2022-12-18T01:48:13;102793.53;;;-5.21;96.77
67015;BME280;1033;52.560;13.374;2022-12-18T01:50:44;102785.72;;;-5.00;96.87
67015;BME280;1033;52.560;13.374;2022-12-18T01:53:18;102787.66;;;-5.05;96.34
67015;BME280;1033;52.560;13.374;2022-12-18T01:55:50;102794.16;;;-4.90;95.88
67015;BME280;1033;52.560;13.374;2022-12-18T01:58:24;102790.03;;;-5.22;96.18
67015;BME280;1033;52.560;13.374;2022-12-18T02:00:56;102792.47;;;-5.16;96.54
67015;BME280;1033;52.560;13.374;2022-12-18T02:03:25;102798.25;;;-5.06;95.89
67015;BME280;1033;52.560;13.374;2022-12-18T02:06:02;102797.25;;;-5.27;94.80
67015;BME280;1033;52.560;13.374;2022-12-18T02:08:41;102806.69;;;-5.20;95.64
67015;BME280;1033;52.560;13.374;2022-12-18T02:11:17;102801.09;;;-5.36;95.62
67015;BME280;1033;52.560;13.374;2022-12-18T02:13:55;102801.06;;;-5.60;95.78
67015;BME280;1033;52.560;13.374;2022-12-18T02:16:34;102799.50;;;-5.66;96.72
67015;BME280;1033;52.560;13.374;2022-12-18T02:19:12;102802.06;;;-5.63;97.27
67015;BME280;1033;52.560;13.374;2022-12-18T02:21:49;102797.53;;;-5.59;97.38
67015;BME280;1033;52.560;13.374;2022-12-18T02:24:32;102796.69;;;-5.61;97.16
67015;BME280;1033;52.560;13.374;2022-12-18T02:27:06;102801.72;;;-5.54;97.18
67015;BME280;1033;52.560;13.374;2022-12-18T02:29:39;102798.41;;;-5.34;96.96
67015;BME280;1033;52.560;13.374;2022-12-18T02:32:12;102803.19;;;-5.20;96.54
67015;BME280;1033;52.560;13.374;2022-12-18T02:34:55;102813.91;;;-5.25;95.61
67015;BME280;1033;52.560;13.374;2022-12-18T02:37:28;102817.03;;;-5.39;96.03
67015;BME280;1033;52.560;13.374;2022-12-18T02:40:03;102815.59;;;-5.47;96.19
67015;BME280;1033;52.560;13.374;2022-12-18T02:42:36;102822.63;;;-5.48;96.24
67015;BME280;1033;52.560;13.374;2022-12-18T02:45:08;102819.88;;;-5.45;96.49
67015;BME280;1033;52.560;13.374;2022-12-18T02:47:40;102814.06;;;-5.30;96.78
67015;BME280;1033;52.560;13.374;2022-12-18T02:50:19;102823.28;;;-5.41;96.51
67015;BME280;1033;52.560;13.374;2022-12-18T02:53:04;102824.09;;;-5.39;96.16
67015;BME280;1033;52.560;13.374;2022-12-18T02:55:44;102826.69;;;-5.64;96.33
67015;BME280;1033;52.560;13.374;2022-12-18T02:58:25;102817.91;;;-5.38;96.99
67015;BME280;1033;52.560;13.374;2022-12-18T03:01:05;102810.16;;;-5.18;96.70
67015;BME280;1033;52.560;13.374;2022-12-18T03:03:39;102810.34;;;-5.24;96.04
67015;BME280;1033;52.560;13.374;2022-12-18T03:06:14;102816.34;;;-5.19;96.20
67015;BME280;1033;52.560;13.374;2022-12-18T03:08:52;102817.91;;;-5.38;95.63
67015;BME280;1033;52.560;13.374;2022-12-18T03:11:25;102821.13;;;-5.30;95.51
67015;BME280;1033;52.560;13.374;2022-12-18T03:14:12;102819.06;;;-5.22;95.42
67015;BME280;1033;52.560;13.374;2022-12-18T03:16:44;102810.56;;;-5.30;95.44
67015;BME280;1033;52.560;13.374;2022-12-18T03:19:16;102814.56;;;-5.43;95.56
67015;BME280;1033;52.560;13.374;2022-12-18T03:21:53;102820.09;;;-5.51;95.77
67015;BME280;1033;52.560;13.374;2022-12-18T03:27:16;102821.66;;;-5.45;96.69
67015;BME280;1033;52.560;13.374;2022-12-18T03:29:51;102824.72;;;-5.57;96.64
67015;BME280;1033;52.560;13.374;2022-12-18T03:32:28;102826.75;;;-5.65;96.35
67015;BME280;1033;52.560;13.374;2022-12-18T03:35:03;102831.09;;;-5.64;96.96
67015;BME280;1033;52.560;13.374;2022-12-18T03:37:36;102825.09;;;-5.68;96.44
67015;BME280;1033;52.560;13.374;2022-12-18T03:40:08;102820.56;;;-5.64;96.93
67015;BME280;1033;52.560;13.374;2022-12-18T03:42:45;102827.44;;;-5.60;96.79
67015;BME280;1033;52.560;13.374;2022-12-18T03:45:23;102826.44;;;-5.56;96.85
67015;BME280;1033;52.560;13.374;2022-12-18T03:48:01;102820.94;;;-5.50;96.21
67015;BME280;1033;52.560;13.374;2022-12-18T03:50:42;102820.16;;;-5.52;95.98
67015;BME280;1033;52.560;13.374;2022-12-18T03:53:23;102829.28;;;-5.62;95.49
67015;BME280;1033;52.560;13.374;2022-12-18T03:55:55;102834.88;;;-5.47;96.07
67015;BME280;1033;52.560;13.374;2022-12-18T03:58:33;102830.28;;;-5.40;96.28
67015;BME280;1033;52.560;13.374;2022-12-18T04:01:18;102837.06;;;-5.58;95.69
67015;BME280;1033;52.560;13.374;2022-12-18T04:03:50;102835.22;;;-5.31;95.94
67015;BME280;1033;52.560;13.374;2022-12-18T04:06:20;102827.31;;;-5.31;95.01
67015;BME280;1033;52.560;13.374;2022-12-18T04:08:51;102826.19;;;-5.49;94.99
67015;BME280;1033;52.560;13.374;2022-12-18T04:11:25;102828.44;;;-5.63;95.53
67015;BME280;1033;52.560;13.374;2022-12-18T04:13:56;102836.19;;;-5.58;96.48
67015;BME280;1033;52.560;13.374;2022-12-18T04:16:28;102844.25;;;-5.63;96.33
67015;BME280;1033;52.560;13.374;2022-12-18T04:19:01;102854.94;;;-5.41;96.07
67015;BME280;1033;52.560;13.374;2022-12-18T04:21:35;102848.34;;;-5.54;95.57
67015;BME280;1033;52.560;13.374;2022-12-18T04:24:05;102849.41;;;-5.60;95.28
67015;BME280;1033;52.560;13.374;2022-12-18T04:26:36;102846.19;;;-5.68;96.00
67015;BME280;1033;52.560;13.374;2022-12-18T04:29:26;102842.78;;;-5.72;94.99
67015;BME280;1033;52.560;13.374;2022-12-18T04:31:57;102842.94;;;-5.76;95.49
67015;BME280;1033;52.560;13.374;2022-12-18T04:34:29;102840.44;;;-5.81;95.70
67015;BME280;1033;52.560;13.374;2022-12-18T04:36:58;102842.50;;;-5.89;95.95
67015;BME280;1033;52.560;13.374;2022-12-18T04:39:29;102858.91;;;-6.07;96.39
67015;BME280;1033;52.560;13.374;2022-12-18T04:42:03;102854.34;;;-6.02;96.71
67015;BME280;1033;52.560;13.374;2022-12-18T04:44:34;102853.38;;;-5.99;96.17
67015;BME280;1033;52.560;13.374;2022-12-18T04:47:04;102843.69;;;-5.99;96.54
67015;BME280;1033;52.560;13.374;2022-12-18T04:49:34;102844.81;;;-6.06;96.58
67015;BME280;1033;52.560;13.374;2022-12-18T04:52:03;102847.59;;;-6.10;96.58
67015;BME280;1033;52.560;13.374;2022-12-18T04:54:35;102844.91;;;-6.09;97.28
67015;BME280;1033;52.560;13.374;2022-12-18T04:57:04;102841.28;;;-5.80;97.04
67015;BME280;1033;52.560;13.374;2022-12-18T04:59:33;102850.41;;;-5.89;96.59
67015;BME280;1033;52.560;13.374;2022-12-18T05:02:04;102856.16;;;-5.78;96.33
67015;BME280;1033;52.560;13.374;2022-12-18T05:04:33;102862.16;;;-5.73;95.71
67015;BME280;1033;52.560;13.374;2022-12-18T05:07:02;102865.09;;;-5.82;95.58
67015;BME280;1033;52.560;13.374;2022-12-18T05:09:32;102864.59;;;-5.93;95.50
67015;BME280;1033;52.560;13.374;2022-12-18T05:12:01;102867.44;;;-5.99;94.96
67015;BME280;1033;52.560;13.374;2022-12-18T05:14:30;102878.09;;;-6.02;95.13
67015;BME280;1033;52.560;13.374;2022-12-18T05:16:59;102875.41;;;-6.00;95.16
67015;BME280;1033;52.560;13.374;2022-12-18T05:19:30;102887.28;;;-5.87;95.44
67015;BME280;1033;52.560;13.374;2022-12-18T05:21:59;102897.88;;;-5.89;95.42
67015;BME280;1033;52.560;13.374;2022-12-18T05:24:29;102898.50;;;-5.82;95.42
67015;BME280;1033;52.560;13.374;2022-12-18T05:26:58;102899.00;;;-5.96;94.94
67015;BME280;1033;52.560;13.374;2022-12-18T05:29:27;102903.91;;;-6.13;95.36
67015;BME280;1033;52.560;13.374;2022-12-18T05:31:56;102901.22;;;-6.11;96.03
67015;BME280;1033;52.560;13.374;2022-12-18T05:34:25;102904.69;;;-5.83;96.12
67015;BME280;1033;52.560;13.374;2022-12-18T05:36:56;102898.13;;;-5.96;96.17
67015;BME280;1033;52.560;13.374;2022-12-18T05:39:25;102897.84;;;-5.87;96.49
67015;BME280;1033;52.560;13.374;2022-12-18T05:41:54;102901.72;;;-5.73;95.93
67015;BME280;1033;52.560;13.374;2022-12-18T05:44:23;102903.34;;;-5.68;95.32
67015;BME280;1033;52.560;13.374;2022-12-18T05:46:53;102902.97;;;-5.84;95.08
67015;BME280;1033;52.560;13.374;2022-12-18T05:49:22;102908.38;;;-5.87;95.02
67015;BME280;1033;52.560;13.374;2022-12-18T05:51:52;102912.31;;;-6.00;95.60
67015;BME280;1033;52.560;13.374;2022-12-18T05:54:22;102908.09;;;-5.80;95.58
67015;BME280;1033;52.560;13.374;2022-12-18T05:56:52;102907.00;;;-5.73;95.39
67015;BME280;1033;52.560;13.374;2022-12-18T05:59:21;102902.63;;;-5.74;94.31
67015;BME280;1033;52.560;13.374;2022-12-18T06:01:51;102914.50;;;-5.87;94.77
67015;BME280;1033;52.560;13.374;2022-12-18T06:04:20;102913.88;;;-5.68;94.92
67015;BME280;1033;52.560;13.374;2022-12-18T06:06:50;102921.78;;;-5.95;94.81
67015;BME280;1033;52.560;13.374;2022-12-18T06:09:19;102926.75;;;-5.86;95.22
67015;BME280;1033;52.560;13.374;2022-12-18T06:11:52;102926.88;;;-5.89;95.67
67015;BME280;1033;52.560;13.374;2022-12-18T06:14:21;102928.25;;;-5.77;95.40
67015;BME280;1033;52.560;13.374;2022-12-18T06:16:51;102924.44;;;-5.68;95.33
67015;BME280;1033;52.560;13.374;2022-12-18T06:19:20;102927.59;;;-5.57;94.44
67015;BME280;1033;52.560;13.374;2022-12-18T06:21:50;102929.47;;;-5.61;93.32
67015;BME280;1033;52.560;13.374;2022-12-18T06:24:19;102933.97;;;-5.64;94.11
67015;BME280;1033;52.560;13.374;2022-12-18T06:26:50;102932.03;;;-5.86;94.59
67015;BME280;1033;52.560;13.374;2022-12-18T06:29:19;102928.28;;;-5.79;95.02
67015;BME280;1033;52.560;13.374;2022-12-18T06:31:48;102936.88;;;-5.72;95.14
67015;BME280;1033;52.560;13.374;2022-12-18T06:34:18;102936.72;;;-5.67;95.21
67015;BME280;1033;52.560;13.374;2022-12-18T06:36:47;102953.63;;;-5.75;95.31
67015;BME280;1033;52.560;13.374;2022-12-18T06:39:16;102948.50;;;-5.79;95.30
67015;BME280;1033;52.560;13.374;2022-12-18T06:41:45;102954.97;;;-5.61;95.00
67015;BME280;1033;52.560;13.374;2022-12-18T06:44:16;102966.69;;;-5.70;94.53
67015;BME280;1033;52.560;13.374;2022-12-18T06:46:45;102962.31;;;-5.71;95.02
67015;BME280;1033;52.560;13.374;2022-12-18T06:49:15;102961.38;;;-5.68;94.68
67015;BME280;1033;52.560;13.374;2022-12-18T06:51:44;102965.78;;;-5.69;94.45
67015;BME280;1033;52.560;13.374;2022-12-18T06:54:13;102970.38;;;-5.76;94.33
67015;BME280;1033;52.560;13.374;2022-12-18T06:56:44;102974.31;;;-5.61;94.80
67015;BME280;1033;52.560;13.374;2022-12-18T06:59:15;102988.44;;;-5.62;94.61
67015;BME280;1033;52.560;13.374;2022-12-18T07:01:45;102980.44;;;-5.60;94.33
67015;BME280;1033;52.560;13.374;2022-12-18T07:04:14;102977.78;;;-5.59;94.68
67015;BME280;1033;52.560;13.374;2022-12-18T07:06:43;102967.78;;;-5.49;94.78
67015;BME280;1033;52.560;13.374;2022-12-18T07:09:12;102968.88;;;-5.56;94.33
67015;BME280;1033;52.560;13.374;2022-12-18T07:11:41;102967.41;;;-5.65;94.61
67015;BME280;1033;52.560;13.374;2022-12-18T07:14:11;102970.28;;;-5.73;94.92
67015;BME280;1033;52.560;13.374;2022-12-18T07:16:41;102972.09;;;-5.75;95.18
67015;BME280;1033;52.560;13.374;2022-12-18T07:19:10;102972.47;;;-5.57;95.41
67015;BME280;1033;52.560;13.374;2022-12-18T07:21:40;102983.63;;;-5.49;94.67
67015;BME280;1033;52.560;13.374;2022-12-18T07:24:09;102980.38;;;-5.57;94.09
67015;BME280;1033;52.560;13.374;2022-12-18T07:26:38;102983.81;;;-5.55;94.79
67015;BME280;1033;52.560;13.374;2022-12-18T07:29:08;102984.78;;;-5.58;94.91
67015;BME280;1033;52.560;13.374;2022-12-18T07:31:37;102978.81;;;-5.64;94.77
67015;BME280;1033;52.560;13.374;2022-12-18T07:34:10;102973.44;;;-5.61;95.01
67015;BME280;1033;52.560;13.374;2022-12-18T07:36:40;102976.31;;;-5.41;95.25
67015;BME280;1033;52.560;13.374;2022-12-18T07:39:11;102977.75;;;-5.31;95.29
67015;BME280;1033;52.560;13.374;2022-12-18T07:41:40;102971.75;;;-5.36;94.63
67015;BME280;1033;52.560;13.374;2022-12-18T07:44:16;102978.22;;;-5.18;95.24
67015;BME280;1033;52.560;13.374;2022-12-18T07:46:45;102977.44;;;-5.22;94.88
67015;BME280;1033;52.560;13.374;2022-12-18T07:49:15;102977.13;;;-5.13;94.63
67015;BME280;1033;52.560;13.374;2022-12-18T07:51:45;102976.00;;;-5.04;94.45
67015;BME280;1033;52.560;13.374;2022-12-18T07:54:18;102976.56;;;-5.22;93.81
67015;BME280;1033;52.560;13.374;2022-12-18T07:56:47;102965.38;;;-5.29;94.27
67015;BME280;1033;52.560;13.374;2022-12-18T07:59:16;102972.66;;;-5.37;94.59
67015;BME280;1033;52.560;13.374;2022-12-18T08:01:45;102977.75;;;-5.31;95.03
67015;BME280;1033;52.560;13.374;2022-12-18T08:04:16;102989.13;;;-5.29;94.74
67015;BME280;1033;52.560;13.374;2022-12-18T08:06:46;102989.47;;;-5.40;94.53
67015;BME280;1033;52.560;13.374;2022-12-18T08:09:15;102993.28;;;-5.22;95.56
67015;BME280;1033;52.560;13.374;2022-12-18T08:11:45;102987.91;;;-5.19;94.79
67015;BME280;1033;52.560;13.374;2022-12-18T08:14:14;102985.06;;;-5.13;94.78
67015;BME280;1033;52.560;13.374;2022-12-18T08:16:43;102989.91;;;-5.27;94.21
67015;BME280;1033;52.560;13.374;2022-12-18T08:19:13;102988.44;;;-5.62;94.92
67015;BME280;1033;52.560;13.374;2022-12-18T08:21:43;102991.44;;;-5.46;95.65
67015;BME280;1033;52.560;13.374;2022-12-18T08:24:13;103000.22;;;-5.18;96.13
67015;BME280;1033;52.560;13.374;2022-12-18T08:26:43;103003.66;;;-5.16;95.12
67015;BME280;1033;52.560;13.374;2022-12-18T08:29:32;103000.06;;;-5.13;95.47
67015;BME280;1033;52.560;13.374;2022-12-18T08:32:01;102998.72;;;-5.00;94.54
67015;BME280;1033;52.560;13.374;2022-12-18T08:34:30;102997.88;;;-5.01;93.63
67015;BME280;1033;52.560;13.374;2022-12-18T08:37:01;103008.31;;;-4.98;93.02
67015;BME280;1033;52.560;13.374;2022-12-18T08:39:30;103006.41;;;-5.19;93.28
67015;BME280;1033;52.560;13.374;2022-12-18T08:42:00;103013.91;;;-5.07;93.55
67015;BME280;1033;52.560;13.374;2022-12-18T08:44:46;103018.16;;;-4.76;92.60
67015;BME280;1033;52.560;13.374;2022-12-18T08:47:16;103013.00;;;-4.79;92.58
67015;BME280;1033;52.560;13.374;2022-12-18T08:49:45;103013.19;;;-4.86;92.08
67015;BME280;1033;52.560;13.374;2022-12-18T08:52:16;103020.41;;;-4.91;91.58
67015;BME280;1033;52.560;13.374;2022-12-18T08:54:45;103027.66;;;-4.71;91.75
67015;BME280;1033;52.560;13.374;2022-12-18T08:57:14;103027.50;;;-4.93;91.81
67015;BME280;1033;52.560;13.374;2022-12-18T08:59:43;103029.75;;;-4.80;92.15
67015;BME280;1033;52.560;13.374;2022-12-18T09:02:13;103030.22;;;-4.69;91.26
67015;BME280;1033;52.560;13.374;2022-12-18T09:04:42;103033.03;;;-4.74;91.56
67015;BME280;1033;52.560;13.374;2022-12-18T09:07:15;103030.03;;;-4.63;91.30
67015;BME280;1033;52.560;13.374;2022-12-18T09:12:18;103035.44;;;-4.93;90.61
67015;BME280;1033;52.560;13.374;2022-12-18T09:14:47;103040.97;;;-5.00;90.94
67015;BME280;1033;52.560;13.374;2022-12-18T09:17:16;103047.69;;;-4.90;90.70
67015;BME280;1033;52.560;13.374;2022-12-18T09:19:46;103045.69;;;-4.84;91.18
67015;BME280;1033;52.560;13.374;2022-12-18T09:22:16;103038.28;;;-4.48;90.15
67015;BME280;1033;52.560;13.374;2022-12-18T09:27:49;103044.94;;;-4.36;90.09
67015;BME280;1033;52.560;13.374;2022-12-18T09:30:18;103036.72;;;-4.53;90.13
67015;BME280;1033;52.560;13.374;2022-12-18T09:32:47;103051.56;;;-4.49;89.59
67015;BME280;1033;52.560;13.374;2022-12-18T09:35:16;103041.50;;;-4.64;89.58
67015;BME280;1033;52.560;13.374;2022-12-18T09:37:47;103052.69;;;-4.56;90.31
67015;BME280;1033;52.560;13.374;2022-12-18T09:40:19;103047.63;;;-4.38;90.17
67015;BME280;1033;52.560;13.374;2022-12-18T09:42:54;103032.84;;;-4.43;89.80
67015;BME280;1033;52.560;13.374;2022-12-18T09:45:25;103028.69;;;-4.50;89.62
67015;BME280;1033;52.560;13.374;2022-12-18T09:47:56;103030.25;;;-4.45;89.74
67015;BME280;1033;52.560;13.374;2022-12-18T09:50:35;103024.09;;;-4.45;89.53
67015;BME280;1033;52.560;13.374;2022-12-18T09:53:14;103018.09;;;-4.50;89.49
67015;BME280;1033;52.560;13.374;2022-12-18T09:55:46;103009.97;;;-4.44;89.38
67015;BME280;1033;52.560;13.374;2022-12-18T09:58:20;103009.38;;;-4.27;89.32
67015;BME280;1033;52.560;13.374;2022-12-18T10:00:55;103002.75;;;-4.16;89.18
67015;BME280;1033;52.560;13.374;2022-12-18T10:03:24;102994.63;;;-4.10;88.35
67015;BME280;1033;52.560;13.374;2022-12-18T10:06:00;102978.03;;;-3.91;88.59
67015;BME280;1033;52.560;13.374;2022-12-18T10:08:39;102981.00;;;-3.77;87.74
67015;BME280;1033;52.560;13.374;2022-12-18T10:11:34;102985.16;;;-3.70;87.75
67015;BME280;1033;52.560;13.374;2022-12-18T10:14:13;102984.97;;;-3.66;88.46
67015;BME280;1033;52.560;13.374;2022-12-18T10:16:54;102985.72;;;-3.62;88.72
67015;BME280;1033;52.560;13.374;2022-12-18T10:19:37;102987.44;;;-3.61;89.02
67015;BME280;1033;52.560;13.374;2022-12-18T10:22:18;102990.78;;;-3.56;89.23
67015;BME280;1033;52.560;13.374;2022-12-18T10:24:55;102992.88;;;-3.64;90.17
67015;BME280;1033;52.560;13.374;2022-12-18T10:27:27;102989.03;;;-3.57;89.84
67015;BME280;1033;52.560;13.374;2022-12-18T10:29:57;102989.31;;;-3.63;91.21
67015;BME280;1033;52.560;13.374;2022-12-18T10:32:28;102980.78;;;-3.71;91.41
67015;BME280;1033;52.560;13.374;2022-12-18T10:34:58;102980.19;;;-3.78;91.76
67015;BME280;1033;52.560;13.374;2022-12-18T10:37:29;102971.97;;;-3.72;92.20
67015;BME280;1033;52.560;13.374;2022-12-18T10:40:17;102974.25;;;-3.63;92.65
67015;BME280;1033;52.560;13.374;2022-12-18T10:43:04;102962.47;;;-3.54;91.77
67015;BME280;1033;52.560;13.374;2022-12-18T10:45:34;102966.00;;;-3.33;91.35
67015;BME280;1033;52.560;13.374;2022-12-18T10:48:04;102962.59;;;-3.35;90.31
67015;BME280;1033;52.560;13.374;2022-12-18T10:50:34;102951.56;;;-3.25;90.81
67015;BME280;1033;52.560;13.374;2022-12-18T10:53:27;102952.75;;;-3.12;89.91
67015;BME280;1033;52.560;13.374;2022-12-18T10:55:59;102940.44;;;-3.13;90.36
67015;BME280;1033;52.560;13.374;2022-12-18T10:58:38;102940.41;;;-2.91;89.77
67015;BME280;1033;52.560;13.374;2022-12-18T11:01:11;102937.56;;;-2.86;89.12
67015;BME280;1033;52.560;13.374;2022-12-18T11:03:42;102934.63;;;-3.00;89.66
67015;BME280;1033;52.560;13.374;2022-12-18T11:06:14;102935.16;;;-2.92;89.76
67015;BME280;1033;52.560;13.374;2022-12-18T11:08:57;102937.81;;;-2.92;89.49
67015;BME280;1033;52.560;13.374;2022-12-18T11:11:29;102930.13;;;-2.78;88.77
67015;BME280;1033;52.560;13.374;2022-12-18T11:14:02;102938.34;;;-2.84;88.59
67015;BME280;1033;52.560;13.374;2022-12-18T11:16:34;102934.63;;;-2.80;88.06
67015;BME280;1033;52.560;13.374;2022-12-18T11:19:14;102935.16;;;-2.72;89.15
67015;BME280;1033;52.560;13.374;2022-12-18T11:21:43;102935.25;;;-2.55;88.60
67015;BME280;1033;52.560;13.374;2022-12-18T11:24:23;102932.06;;;-2.82;88.27
67015;BME280;1033;52.560;13.374;2022-12-18T11:26:55;102940.47;;;-2.92;89.25
67015;BME280;1033;52.560;13.374;2022-12-18T11:29:34;102935.81;;;-3.08;89.97
67015;BME280;1033;52.560;13.374;2022-12-18T11:32:35;102935.41;;;-2.98;90.30
67015;BME280;1033;52.560;13.374;2022-12-18T11:35:15;102929.41;;;-3.02;90.63
67015;BME280;1033;52.560;13.374;2022-12-18T11:37:49;102929.44;;;-3.03;91.06
67015;BME280;1033;52.560;13.374;2022-12-18T11:40:22;102932.75;;;-2.98;91.07
67015;BME280;1033;52.560;13.374;2022-12-18T11:43:02;102929.41;;;-3.02;90.72
67015;BME280;1033;52.560;13.374;2022-12-18T11:45:35;102938.59;;;-2.90;91.56
67015;BME280;1033;52.560;13.374;2022-12-18T11:48:14;102946.00;;;-2.98;91.22
67015;BME280;1033;52.560;13.374;2022-12-18T11:50:49;102955.16;;;-3.05;90.80
67015;BME280;1033;52.560;13.374;2022-12-18T11:53:19;102948.38;;;-3.13;91.04
67015;BME280;1033;52.560;13.374;2022-12-18T11:56:11;102959.94;;;-2.93;90.93
67015;BME280;1033;52.560;13.374;2022-12-18T11:58:47;102973.66;;;-2.84;91.16
67015;BME280;1033;52.560;13.374;2022-12-18T12:01:28;102962.78;;;-2.78;89.72
67015;BME280;1033;52.560;13.374;2022-12-18T12:04:43;102975.91;;;-2.75;89.70
67015;BME280;1033;52.560;13.374;2022-12-18T12:07:37;102973.50;;;-3.01;89.54
67015;BME280;1033;52.560;13.374;2022-12-18T12:13:15;102980.44;;;-3.40;91.62
67015;BME280;1033;52.560;13.374;2022-12-18T12:15:59;102982.91;;;-3.36;91.88
67015;BME280;1033;52.560;13.374;2022-12-18T12:18:39;102972.78;;;-3.26;92.53
67015;BME280;1033;52.560;13.374;2022-12-18T12:21:16;102966.50;;;-3.24;92.38
67015;BME280;1033;52.560;13.374;2022-12-18T12:23:53;102973.03;;;-3.11;91.83
67015;BME280;1033;52.560;13.374;2022-12-18T12:26:28;102978.81;;;-3.23;91.95
67015;BME280;1033;52.560;13.374;2022-12-18T12:29:06;102979.56;;;-3.19;91.78
67015;BME280;1033;52.560;13.374;2022-12-18T12:31:57;102982.72;;;-3.31;91.12
67015;BME280;1033;52.560;13.374;2022-12-18T12:34:34;102994.03;;;-3.28;92.45
67015;BME280;1033;52.560;13.374;2022-12-18T12:37:20;102993.34;;;-3.33;92.58
67015;BME280;1033;52.560;13.374;2022-12-18T12:39:52;102987.06;;;-3.09;92.56
67015;BME280;1033;52.560;13.374;2022-12-18T12:42:29;102994.22;;;-3.11;91.62
67015;BME280;1033;52.560;13.374;2022-12-18T12:45:28;102992.88;;;-3.21;92.06
67015;BME280;1033;52.560;13.374;2022-12-18T12:48:02;102980.41;;;-3.19;92.21
67015;BME280;1033;52.560;13.374;2022-12-18T12:50:34;102983.63;;;-3.11;92.01
67015;BME280;1033;52.560;13.374;2022-12-18T12:53:07;102965.75;;;-3.05;91.15
67015;BME280;1033;52.560;13.374;2022-12-18T12:55:41;102952.78;;;-2.91;91.72
67015;BME280;1033;52.560;13.374;2022-12-18T12:58:17;102944.91;;;-2.93;90.54
67015;BME280;1033;52.560;13.374;2022-12-18T13:00:54;102937.00;;;-2.94;89.62
67015;BME280;1033;52.560;13.374;2022-12-18T13:03:37;102932.50;;;-3.13;90.03
67015;BME280;1033;52.560;13.374;2022-12-18T13:06:16;102932.34;;;-3.30;91.14
67015;BME280;1033;52.560;13.374;2022-12-18T13:08:54;102922.16;;;-3.19;91.36
67015;BME280;1033;52.560;13.374;2022-12-18T13:11:34;102933.13;;;-3.28;91.09
67015;BME280;1033;52.560;13.374;2022-12-18T13:14:31;102936.25;;;-3.18;91.84
67015;BME280;1033;52.560;13.374;2022-12-18T13:17:28;102939.78;;;-3.18;91.10
67015;BME280;1033;52.560;13.374;2022-12-18T13:20:08;102937.94;;;-3.16;91.36
67015;BME280;1033;52.560;13.374;2022-12-18T13:22:42;102942.84;;;-3.07;91.39
67015;BME280;1033;52.560;13.374;2022-12-18T13:25:34;102943.63;;;-3.04;91.16
67015;BME280;1033;52.560;13.374;2022-12-18T13:28:12;102942.59;;;-3.00;90.66
67015;BME280;1033;52.560;13.374;2022-12-18T13:30:52;102932.09;;;-3.03;90.49
67015;BME280;1033;52.560;13.374;2022-12-18T13:33:42;102934.63;;;-2.80;90.94
67015;BME280;1033;52.560;13.374;2022-12-18T13:36:34;102929.59;;;-2.86;89.83
67015;BME280;1033;52.560;13.374;2022-12-18T13:39:21;102932.03;;;-3.02;90.00
67015;BME280;1033;52.560;13.374;2022-12-18T13:45:43;102920.97;;;-3.12;89.94
67015;BME280;1033;52.560;13.374;2022-12-18T13:48:20;102909.97;;;-3.23;90.45
67015;BME280;1033;52.560;13.374;2022-12-18T13:50:53;102896.19;;;-3.31;91.56